Time;durP1;ratioP1;P1;durP2;ratioP2;P2;SDS_P1;SDS_P2;PMS_P1;PMS_P2;Temp;Humidity;BMP_temperature;BMP_pressure;BME280_temperature;BME280_humidity;BME280_pressure;Samples;Min_cycle;Max_cycle;Signal;HPM_P1;HPM_P2
2023/03/15 00:01:25;;;;;;;5.20;1.30;;;;;;;2.40;92.41;101079.22;5066506;28;20049;-77
2023/03/15 00:03:54;;;;;;;5.10;1.13;;;;;;;2.32;92.84;101073.94;5060426;28;20107;-79
2023/03/15 00:06:21;;;;;;;3.78;1.02;;;;;;;2.29;93.09;101073.94;5067427;28;20651;-79
2023/03/15 00:08:48;;;;;;;2.85;1.00;;;;;;;2.24;93.25;101075.63;5067540;28;20041;-78
2023/03/15 00:11:15;;;;;;;4.07;1.20;;;;;;;2.25;93.68;101069.56;5060408;28;21492;-80
2023/03/15 00:13:44;;;;;;;3.20;1.15;;;;;;;2.20;93.80;101074.72;5067159;28;20037;-79
2023/03/15 00:16:17;;;;;;;3.42;1.20;;;;;;;2.24;94.00;101083.41;5064438;28;20041;-78
2023/03/15 00:18:45;;;;;;;6.03;1.20;;;;;;;2.24;94.05;101065.22;5066853;28;20047;-79
2023/03/15 00:21:14;;;;;;;5.53;1.30;;;;;;;2.24;94.34;101065.22;5066608;28;20036;-79
2023/03/15 00:23:41;;;;;;;3.00;1.10;;;;;;;2.26;94.39;101074.75;5058483;28;20052;-78
2023/03/15 00:26:08;;;;;;;2.45;0.98;;;;;;;2.25;94.21;101086.03;5066350;28;20080;-77
2023/03/15 00:28:35;;;;;;;2.25;0.73;;;;;;;2.21;93.93;101081.66;5058668;28;20110;-78
2023/03/15 00:31:15;;;;;;;1.52;0.70;;;;;;;2.11;93.66;101085.06;5066369;28;20075;-78
2023/03/15 00:33:44;;;;;;;1.75;0.55;;;;;;;2.00;93.68;101083.22;5060936;28;20072;-79
2023/03/15 00:36:12;;;;;;;1.88;0.50;;;;;;;1.96;93.67;101086.66;5063094;28;20073;-78
2023/03/15 00:38:42;;;;;;;1.05;0.50;;;;;;;1.92;93.89;101086.59;5065509;28;20045;-78
2023/03/15 00:41:14;;;;;;;0.73;0.50;;;;;;;1.86;93.78;101087.41;5065663;28;20124;-78
2023/03/15 00:43:42;;;;;;;0.70;0.50;;;;;;;1.75;94.01;101092.53;5065879;28;20045;-78
2023/03/15 00:46:14;;;;;;;1.75;0.70;;;;;;;1.66;94.01;101100.22;5066002;28;20049;-80
2023/03/15 00:48:41;;;;;;;1.27;0.85;;;;;;;1.59;94.25;101093.19;5058964;28;20127;-78
2023/03/15 00:51:16;;;;;;;1.13;0.82;;;;;;;1.57;94.71;101097.53;5064704;28;20044;-78
2023/03/15 00:53:45;;;;;;;2.17;0.88;;;;;;;1.58;94.95;101091.50;5065972;28;20865;-78
2023/03/15 00:56:20;;;;;;;1.42;0.80;;;;;;;1.56;95.13;101091.44;5065145;28;20037;-79
2023/03/15 00:58:47;;;;;;;2.42;1.23;;;;;;;1.54;95.17;101091.44;5066768;28;20048;-78
2023/03/15 01:01:22;;;;;;;2.72;1.00;;;;;;;1.53;95.40;101097.50;5064049;28;20044;-79
2023/03/15 01:03:50;;;;;;;1.88;0.90;;;;;;;1.52;95.42;101102.69;5066580;28;20087;-79
2023/03/15 01:06:21;;;;;;;2.00;0.98;;;;;;;1.54;95.84;101099.25;5066000;28;20041;-79
2023/03/15 01:08:50;;;;;;;3.03;1.42;;;;;;;1.58;95.93;101099.28;5066269;28;20515;-79
2023/03/15 01:11:25;;;;;;;3.20;1.00;;;;;;;1.64;96.24;101099.34;5066987;28;20159;-78
2023/03/15 01:13:57;;;;;;;2.83;1.20;;;;;;;1.69;96.37;101110.63;5065380;28;20087;-79
2023/03/15 01:16:27;;;;;;;1.20;0.90;;;;;;;1.74;96.47;101124.56;5063194;28;20116;-78
2023/03/15 01:18:54;;;;;;;2.45;1.40;;;;;;;1.78;96.52;101122.88;5065298;28;20373;-78
2023/03/15 01:21:23;;;;;;;2.55;1.20;;;;;;;1.82;96.67;101124.66;5064796;28;20099;-78
2023/03/15 01:23:51;;;;;;;2.00;1.30;;;;;;;1.84;96.76;101120.31;5065204;28;20048;-76
2023/03/15 01:26:21;;;;;;;4.30;1.70;;;;;;;1.90;96.97;101125.59;5063498;28;20045;-77
2023/03/15 01:28:49;;;;;;;2.67;1.40;;;;;;;1.96;97.08;101127.41;5066736;28;20041;-77
2023/03/15 01:31:24;;;;;;;2.58;1.45;;;;;;;2.02;97.18;101137.84;5064619;28;20099;-77
2023/03/15 01:33:52;;;;;;;1.80;1.38;;;;;;;2.01;96.87;101144.78;5059705;28;20052;-78
2023/03/15 01:36:19;;;;;;;1.30;1.20;;;;;;;2.01;96.82;101141.31;5063459;28;20154;-78
2023/03/15 01:38:48;;;;;;;2.20;1.67;;;;;;;1.98;96.46;101139.56;5065267;28;20041;-78
2023/03/15 01:41:18;;;;;;;2.63;1.40;;;;;;;1.95;96.45;101139.50;5063684;28;20811;-76
2023/03/15 01:43:48;;;;;;;3.40;1.55;;;;;;;1.91;96.44;101139.47;5060065;28;20056;-76
2023/03/15 01:46:22;;;;;;;4.22;1.60;;;;;;;1.89;96.72;101147.25;5057851;28;20567;-77
2023/03/15 01:49:04;;;;;;;2.72;1.75;;;;;;;1.88;96.81;101153.31;5064402;28;20130;-76
2023/03/15 01:51:54;;;;;;;3.00;1.87;;;;;;;1.85;96.82;101146.38;5063107;28;20048;-77
2023/03/15 01:54:35;;;;;;;2.53;2.00;;;;;;;1.87;96.84;101148.97;5071522;28;20049;-77
2023/03/15 01:57:28;;;;;;;3.13;2.30;;;;;;;1.83;96.51;101152.41;5064194;28;20041;-79
2023/03/15 02:00:10;;;;;;;3.92;2.97;;;;;;;1.80;96.75;101153.22;5057788;28;20505;-77
2023/03/15 02:02:56;;;;;;;3.00;2.40;;;;;;;1.82;96.79;101153.25;5062889;28;20049;-77
2023/03/15 02:05:38;;;;;;;4.47;2.20;;;;;;;1.79;96.78;101148.88;5073663;28;20041;-77
2023/03/15 02:08:08;;;;;;;3.75;2.35;;;;;;;1.76;96.80;101146.25;5064162;28;20060;-78
2023/03/15 02:10:46;;;;;;;2.63;1.50;;;;;;;1.74;96.95;101150.56;5064474;28;20053;-78
2023/03/15 02:13:21;;;;;;;2.55;1.20;;;;;;;1.70;96.81;101149.66;5063101;28;20056;-78
2023/03/15 02:15:52;;;;;;;1.15;0.85;;;;;;;1.62;96.43;101153.91;5058333;28;20048;-78
2023/03/15 02:18:25;;;;;;;2.55;0.60;;;;;;;1.60;96.29;101158.22;5061216;28;20596;-78
2023/03/15 02:21:13;;;;;;;1.33;0.80;;;;;;;1.53;96.47;101156.38;5055225;28;20166;-78
2023/03/15 02:23:42;;;;;;;1.52;0.93;;;;;;;1.51;96.70;101161.56;5063960;28;20041;-79
2023/03/15 02:26:27;;;;;;;1.90;0.98;;;;;;;1.50;97.06;101151.16;5079550;28;20037;-79
2023/03/15 02:28:58;;;;;;;1.00;0.55;;;;;;;1.52;97.37;101158.13;5079994;28;20056;-80
2023/03/15 02:31:25;;;;;;;1.08;0.70;;;;;;;1.52;97.27;101165.06;5064553;28;20048;-78
2023/03/15 02:33:55;;;;;;;1.17;0.52;;;;;;;1.49;97.55;101162.41;5063848;28;20107;-78
2023/03/15 02:36:26;;;;;;;2.30;0.80;;;;;;;1.52;97.66;101159.84;5064101;28;20053;-77
2023/03/15 02:38:55;;;;;;;0.80;0.77;;;;;;;1.52;97.92;101160.72;5065189;28;20091;-77
2023/03/15 02:41:41;;;;;;;1.60;1.02;;;;;;;1.53;98.05;101165.06;5057778;28;20537;-78
2023/03/15 02:44:22;;;;;;;1.85;0.75;;;;;;;1.60;98.27;101171.22;5056309;28;20096;-78
2023/03/15 02:46:53;;;;;;;0.95;0.80;;;;;;;1.61;98.16;101180.75;5056936;28;20097;-78
2023/03/15 02:49:26;;;;;;;2.15;1.00;;;;;;;1.64;98.41;101182.50;5060284;28;20041;-77
2023/03/15 02:51:53;;;;;;;1.60;1.00;;;;;;;1.66;98.31;101176.47;5064209;28;20052;-78
2023/03/15 02:54:20;;;;;;;1.60;1.25;;;;;;;1.69;98.46;101186.03;5056036;28;20046;-78
2023/03/15 02:56:47;;;;;;;1.90;1.50;;;;;;;1.71;98.43;101186.91;5067937;28;20038;-78
2023/03/15 02:59:15;;;;;;;2.03;1.40;;;;;;;1.73;98.46;101186.97;5066354;28;20120;-78
2023/03/15 03:01:44;;;;;;;2.83;1.80;;;;;;;1.74;98.35;101191.28;5082093;28;21919;-79
2023/03/15 03:04:12;;;;;;;2.40;1.80;;;;;;;1.72;98.26;101187.81;5065020;28;20137;-77
2023/03/15 03:06:42;;;;;;;2.00;1.80;;;;;;;1.70;98.27;101198.16;5066193;28;20045;-77
2023/03/15 03:09:11;;;;;;;3.35;2.10;;;;;;;1.67;98.27;101201.59;5066894;28;20072;-76
2023/03/15 03:11:40;;;;;;;3.83;2.40;;;;;;;1.65;98.25;101202.44;5064893;28;20045;-77
2023/03/15 03:14:08;;;;;;;3.50;2.60;;;;;;;1.62;98.26;101213.69;5065800;28;20049;-76
2023/03/15 03:16:35;;;;;;;3.05;2.42;;;;;;;1.59;98.44;101224.03;5067558;28;20079;-76
2023/03/15 03:19:02;;;;;;;3.70;2.63;;;;;;;1.56;98.29;101218.78;5066754;28;20061;-76
2023/03/15 03:21:31;;;;;;;3.30;2.72;;;;;;;1.54;98.41;101225.69;5063883;28;20049;-77
2023/03/15 03:23:58;;;;;;;4.07;2.72;;;;;;;1.53;98.71;101230.03;5065743;28;20045;-77
2023/03/15 03:26:26;;;;;;;4.50;3.17;;;;;;;1.52;98.74;101230.88;5067147;28;20041;-76
2023/03/15 03:28:55;;;;;;;4.32;3.33;;;;;;;1.47;98.29;101231.66;5062985;28;20046;-77
2023/03/15 03:31:26;;;;;;;5.18;3.22;;;;;;;1.37;98.22;101236.75;5061876;28;20076;-76
2023/03/15 03:33:56;;;;;;;4.95;3.22;;;;;;;1.33;98.34;101244.47;5065285;28;20116;-77
2023/03/15 03:36:24;;;;;;;4.13;3.42;;;;;;;1.24;98.30;101242.59;5065739;28;20525;-77
2023/03/15 03:38:52;;;;;;;5.03;3.58;;;;;;;1.19;98.36;101252.06;5066588;28;20044;-78
2023/03/15 03:41:20;;;;;;;4.78;3.20;;;;;;;1.13;98.43;101252.84;5066540;28;20064;-77
2023/03/15 03:43:47;;;;;;;6.05;4.07;;;;;;;1.08;98.45;101260.56;5064683;28;20110;-77
2023/03/15 03:46:15;;;;;;;5.80;4.10;;;;;;;1.07;98.61;101265.72;5066754;28;20041;-77
2023/03/15 03:48:47;;;;;;;6.68;3.83;;;;;;;1.03;99.04;101272.59;5065475;28;20122;-78
2023/03/15 03:51:14;;;;;;;5.97;3.90;;;;;;;0.97;98.74;101269.91;5067135;28;20029;-77
2023/03/15 03:53:41;;;;;;;5.25;4.30;;;;;;;0.92;98.79;101272.44;5061802;28;20037;-78
2023/03/15 03:56:09;;;;;;;5.80;4.03;;;;;;;0.88;98.94;101275.81;5065085;28;20053;-78
2023/03/15 03:58:36;;;;;;;7.88;4.78;;;;;;;0.84;99.04;101289.59;5098208;28;20049;-77
2023/03/15 04:01:24;;;;;;;6.30;4.85;;;;;;;0.79;99.10;101293.84;5081617;28;20037;-78
2023/03/15 04:03:53;;;;;;;8.45;5.00;;;;;;;0.80;99.25;101298.19;5065994;28;20045;-78
2023/03/15 04:06:22;;;;;;;6.55;5.00;;;;;;;0.79;99.54;101296.44;5064572;28;20049;-78
2023/03/15 04:08:50;;;;;;;9.70;5.43;;;;;;;0.81;99.65;101305.13;5065563;28;20056;-77
2023/03/15 04:11:43;;;;;;;10.07;6.25;;;;;;;0.80;99.77;101298.19;5063813;28;20486;-76
2023/03/15 04:14:13;;;;;;;10.35;6.63;;;;;;;0.84;99.86;101310.38;5063582;28;20862;-76
2023/03/15 04:16:42;;;;;;;10.95;7.30;;;;;;;0.83;100.00;101306.03;5067164;28;20052;-77
2023/03/15 04:19:11;;;;;;;12.45;6.20;;;;;;;0.82;99.99;101304.28;5065796;28;21112;-76
2023/03/15 04:21:46;;;;;;;9.60;6.35;;;;;;;0.79;100.00;101313.72;5061217;28;20056;-76
2023/03/15 04:24:25;;;;;;;10.18;6.57;;;;;;;0.74;100.00;101314.50;5081064;28;20037;-77
2023/03/15 04:27:13;;;;;;;13.80;6.90;;;;;;;0.71;100.00;101316.19;5052145;28;20410;-76
2023/03/15 04:29:54;;;;;;;12.65;6.70;;;;;;;0.70;100.00;101319.63;5054826;28;20845;-76
2023/03/15 04:32:38;;;;;;;11.27;6.20;;;;;;;0.70;100.00;101317.03;5066435;28;20044;-76
2023/03/15 04:35:16;;;;;;;11.52;7.53;;;;;;;0.72;100.00;101317.94;5062654;28;20128;-76
2023/03/15 04:38:00;;;;;;;14.93;7.90;;;;;;;0.72;100.00;101330.91;5065382;28;20040;-77
2023/03/15 04:40:48;;;;;;;14.13;8.45;;;;;;;0.69;100.00;101333.44;5070985;28;20079;-76
2023/03/15 04:43:23;;;;;;;14.05;7.47;;;;;;;0.66;100.00;101338.59;5080360;28;20094;-77
2023/03/15 04:46:15;;;;;;;15.30;8.38;;;;;;;0.60;100.00;101337.63;5061662;28;20509;-77
2023/03/15 04:49:08;;;;;;;15.25;8.43;;;;;;;0.56;100.00;101345.31;5065777;28;20041;-77
2023/03/15 04:51:52;;;;;;;16.45;9.40;;;;;;;0.53;100.00;101337.47;5065239;28;20107;-77
2023/03/15 04:54:32;;;;;;;18.25;9.77;;;;;;;0.54;100.00;101341.81;5063717;28;20080;-78
2023/03/15 04:57:10;;;;;;;18.80;10.15;;;;;;;0.57;100.00;101347.06;5057199;28;20125;-79
2023/03/15 04:59:55;;;;;;;17.27;10.20;;;;;;;0.55;100.00;101347.06;5060225;28;20111;-78
2023/03/15 05:02:40;;;;;;;18.98;10.52;;;;;;;0.51;100.00;101347.84;5066377;28;20048;-76
2023/03/15 05:05:26;;;;;;;17.88;10.23;;;;;;;0.46;100.00;101360.72;5062105;28;20095;-76
2023/03/15 05:08:07;;;;;;;20.50;10.25;;;;;;;0.44;100.00;101372.78;5064548;28;20084;-77
2023/03/15 05:10:53;;;;;;;17.00;9.85;;;;;;;0.42;100.00;101373.59;5066133;28;20056;-76
2023/03/15 05:13:37;;;;;;;22.30;10.65;;;;;;;0.37;100.00;101370.91;5064220;28;20048;-76
2023/03/15 05:16:04;;;;;;;22.30;11.05;;;;;;;0.34;100.00;101381.22;5065966;28;20041;-76
2023/03/15 05:18:40;;;;;;;23.60;10.75;;;;;;;0.33;100.00;101387.25;5065449;28;20073;-77
2023/03/15 05:21:36;;;;;;;22.77;9.70;;;;;;;0.30;100.00;101400.19;5026413;28;20267;-77
2023/03/15 05:24:29;;;;;;;23.67;12.18;;;;;;;0.27;100.00;101395.78;5052705;28;20143;-80
2023/03/15 05:27:12;;;;;;;23.38;10.60;;;;;;;0.25;100.00;101394.00;5072337;28;20102;-81
2023/03/15 05:29:52;;;;;;;30.05;12.60;;;;;;;0.23;100.00;101408.66;5069091;28;20052;-81
2023/03/15 05:32:58;;;;;;;29.60;12.73;;;;;;;0.21;100.00;101405.13;5054099;28;20052;-76
2023/03/15 05:35:38;;;;;;;29.05;12.98;;;;;;;0.20;100.00;101408.59;5063351;28;20052;-75
2023/03/15 05:38:26;;;;;;;31.40;13.90;;;;;;;0.18;100.00;101410.28;5061622;28;20053;-77
2023/03/15 05:41:03;;;;;;;29.63;12.90;;;;;;;0.16;100.00;101418.00;5063534;28;20049;-77
2023/03/15 05:43:48;;;;;;;27.60;13.25;;;;;;;0.14;100.00;101420.56;5062061;28;20033;-77
2023/03/15 05:46:17;;;;;;;29.83;13.63;;;;;;;0.14;100.00;101417.97;5071218;28;20040;-77
2023/03/15 05:48:56;;;;;;;34.88;14.10;;;;;;;0.17;100.00;101429.28;5088826;28;20045;-76
2023/03/15 05:51:35;;;;;;;31.40;13.30;;;;;;;0.14;100.00;101430.94;5090976;28;20041;-77
2023/03/15 05:54:02;;;;;;;31.98;13.60;;;;;;;0.12;100.00;101426.56;5071594;28;20037;-77
2023/03/15 05:56:48;;;;;;;33.15;13.55;;;;;;;0.08;100.00;101428.22;5071736;28;20119;-78
2023/03/15 05:59:35;;;;;;;33.05;14.10;;;;;;;0.08;100.00;101429.94;5051919;28;20065;-77
2023/03/15 06:02:03;;;;;;;29.77;11.98;;;;;;;0.08;100.00;101435.13;5073661;28;20033;-76
2023/03/15 06:04:38;;;;;;;24.85;11.10;;;;;;;0.08;100.00;101443.78;5084058;28;20041;-77
2023/03/15 06:07:06;;;;;;;40.05;17.00;;;;;;;0.10;100.00;101449.84;5070583;28;20269;-77
2023/03/15 06:09:33;;;;;;;36.65;15.77;;;;;;;0.15;100.00;101452.59;5068758;28;20128;-76
2023/03/15 06:12:01;;;;;;;43.25;17.33;;;;;;;0.19;100.00;101459.56;5072590;28;20575;-77
2023/03/15 06:14:30;;;;;;;44.58;15.85;;;;;;;0.22;100.00;101459.66;5072648;28;20052;-77
2023/03/15 06:17:02;;;;;;;32.78;15.13;;;;;;;0.28;100.00;101464.09;5072517;28;20045;-77
2023/03/15 06:19:30;;;;;;;31.23;14.80;;;;;;;0.34;100.00;101468.56;5071230;28;20064;-77
2023/03/15 06:21:59;;;;;;;34.47;15.88;;;;;;;0.41;100.00;101473.88;5075436;28;20041;-78
2023/03/15 06:24:32;;;;;;;33.03;16.75;;;;;;;0.52;100.00;101470.66;5078859;28;20033;-78
2023/03/15 06:27:00;;;;;;;42.47;16.67;;;;;;;0.58;100.00;101482.03;5079857;28;20041;-78
2023/03/15 06:29:27;;;;;;;40.60;17.13;;;;;;;0.66;100.00;101481.34;5075723;28;20041;-79
2023/03/15 06:31:56;;;;;;;40.33;16.80;;;;;;;0.72;100.00;101489.25;5073235;28;20052;-79
2023/03/15 06:34:26;;;;;;;35.03;16.80;;;;;;;0.75;100.00;101490.19;5072537;28;20057;-78
2023/03/15 06:36:54;;;;;;;40.92;17.17;;;;;;;0.82;100.00;101488.59;5073478;28;20460;-78
2023/03/15 06:39:22;;;;;;;37.60;16.63;;;;;;;0.88;100.00;101491.28;5083207;28;20049;-79
2023/03/15 06:41:57;;;;;;;34.70;16.92;;;;;;;0.95;100.00;101494.03;5071077;28;20044;-79
2023/03/15 06:44:26;;;;;;;38.85;16.45;;;;;;;1.01;100.00;101494.13;5070624;28;20048;-79
2023/03/15 06:46:57;;;;;;;32.53;16.00;;;;;;;1.07;100.00;101497.75;5072523;28;20568;-79
2023/03/15 06:49:26;;;;;;;34.53;15.82;;;;;;;1.13;100.00;101501.28;5070380;28;20567;-78
2023/03/15 06:51:53;;;;;;;36.17;16.50;;;;;;;1.18;100.00;101512.66;5071434;28;20049;-79
2023/03/15 06:54:22;;;;;;;32.65;15.88;;;;;;;1.21;100.00;101518.78;5105509;28;20048;-79
2023/03/15 06:56:49;;;;;;;36.67;16.20;;;;;;;1.28;100.00;101517.19;5072523;28;20045;-79
2023/03/15 06:59:16;;;;;;;35.80;16.92;;;;;;;1.38;100.00;101529.50;5072037;28;20129;-79
2023/03/15 07:01:44;;;;;;;33.75;16.67;;;;;;;1.46;100.00;101531.34;5072754;28;20099;-79
2023/03/15 07:04:11;;;;;;;33.83;16.05;;;;;;;1.49;100.00;101542.66;5068895;28;20548;-77
2023/03/15 07:06:38;;;;;;;32.97;15.43;;;;;;;1.53;100.00;101543.59;5070976;28;20051;-77
2023/03/15 07:09:05;;;;;;;30.88;15.93;;;;;;;1.57;100.00;101547.16;5068800;28;20033;-77
2023/03/15 07:11:32;;;;;;;30.83;15.73;;;;;;;1.63;100.00;101555.06;5068656;28;20040;-77
2023/03/15 07:13:59;;;;;;;31.20;15.98;;;;;;;1.67;100.00;101544.75;5066167;28;20766;-77
2023/03/15 07:16:26;;;;;;;25.85;14.75;;;;;;;1.73;100.00;101549.16;5069743;28;20123;-77
2023/03/15 07:18:55;;;;;;;29.13;15.68;;;;;;;1.78;100.00;101557.91;5068357;28;20037;-77
2023/03/15 07:21:22;;;;;;;29.35;15.57;;;;;;;1.85;100.00;101565.00;5052831;28;20042;-77
2023/03/15 07:23:49;;;;;;;29.10;15.55;;;;;;;1.92;100.00;101576.38;5063856;28;20048;-78
2023/03/15 07:26:16;;;;;;;28.98;15.73;;;;;;;2.00;100.00;101573.88;5066371;28;20084;-77
2023/03/15 07:28:43;;;;;;;29.05;16.02;;;;;;;2.07;100.00;101580.06;5069435;28;20064;-77
2023/03/15 07:31:11;;;;;;;27.40;15.45;;;;;;;2.11;100.00;101587.09;5068790;28;20045;-77
2023/03/15 07:33:39;;;;;;;31.10;17.55;;;;;;;2.12;100.00;101579.31;5069885;28;20041;-77
2023/03/15 07:36:07;;;;;;;30.00;17.90;;;;;;;2.13;100.00;101591.47;5067632;28;20073;-78
2023/03/15 07:38:35;;;;;;;32.60;18.08;;;;;;;2.15;100.00;101594.97;5067071;28;20033;-76
2023/03/15 07:41:06;;;;;;;33.45;18.08;;;;;;;2.20;100.00;101600.25;5066956;28;21718;-77
2023/03/15 07:43:35;;;;;;;26.45;16.88;;;;;;;2.29;100.00;101605.59;5047696;28;20180;-78
2023/03/15 07:46:09;;;;;;;28.08;16.13;;;;;;;2.44;100.00;101606.72;5065543;28;20066;-77
2023/03/15 07:48:37;;;;;;;29.60;16.33;;;;;;;2.50;100.00;101614.59;5069338;28;20142;-78
2023/03/15 07:51:04;;;;;;;25.42;15.48;;;;;;;2.57;100.00;101615.56;5068195;28;20525;-78
2023/03/15 07:53:31;;;;;;;24.13;14.80;;;;;;;2.67;100.00;101620.06;5069580;28;20076;-78
2023/03/15 07:56:00;;;;;;;23.55;15.23;;;;;;;2.77;99.79;101626.28;5071939;28;20036;-78
2023/03/15 07:58:27;;;;;;;20.00;13.57;;;;;;;2.80;99.74;101626.31;5049243;28;20502;-78
2023/03/15 08:00:55;;;;;;;20.42;11.98;;;;;;;2.83;99.47;101635.91;5048754;28;20053;-78
2023/03/15 08:03:25;;;;;;;21.52;12.75;;;;;;;2.86;99.37;101635.97;5048731;28;20052;-78
2023/03/15 08:05:53;;;;;;;23.70;12.57;;;;;;;2.91;99.60;101639.50;5048284;28;20108;-78
2023/03/15 08:08:20;;;;;;;16.10;9.18;;;;;;;2.95;99.25;101634.34;5068195;28;20029;-78
2023/03/15 08:10:47;;;;;;;20.05;11.20;;;;;;;2.98;99.40;101641.34;5068015;28;20041;-77
2023/03/15 08:13:14;;;;;;;19.08;11.43;;;;;;;3.06;99.38;101644.03;5068283;28;20551;-78
2023/03/15 08:15:45;;;;;;;15.85;8.43;;;;;;;3.11;99.38;101642.38;5068958;28;20037;-77
2023/03/15 08:18:13;;;;;;;18.92;8.10;;;;;;;3.16;98.76;101652.88;5068472;28;20052;-78
2023/03/15 08:20:40;;;;;;;14.80;8.18;;;;;;;3.22;98.72;101652.94;5068308;28;20043;-79
2023/03/15 08:23:08;;;;;;;16.83;8.45;;;;;;;3.30;98.57;101658.25;5066501;28;20052;-78
2023/03/15 08:25:39;;;;;;;17.15;9.05;;;;;;;3.36;98.40;101661.81;5069904;28;20088;-78
2023/03/15 08:28:07;;;;;;;14.80;7.93;;;;;;;3.44;97.97;101663.63;5065429;28;20119;-77
2023/03/15 08:30:35;;;;;;;16.60;9.38;;;;;;;3.49;97.60;101670.66;5068078;28;20888;-78
2023/03/15 08:33:02;;;;;;;18.63;8.23;;;;;;;3.57;97.60;101671.63;5067264;28;20037;-77
2023/03/15 08:35:31;;;;;;;14.35;6.95;;;;;;;3.64;96.74;101677.78;5066373;28;20057;-78
2023/03/15 08:38:01;;;;;;;17.48;8.65;;;;;;;3.71;96.52;101676.13;5067101;28;20048;-78
2023/03/15 08:40:30;;;;;;;16.75;7.82;;;;;;;3.80;96.10;101678.00;5070300;28;20854;-76
2023/03/15 08:42:58;;;;;;;10.32;6.70;;;;;;;3.84;95.66;101683.25;5067631;28;20037;-78
2023/03/15 08:45:26;;;;;;;15.18;7.32;;;;;;;3.92;95.42;101682.47;5068704;28;20044;-78
2023/03/15 08:47:56;;;;;;;21.80;8.20;;;;;;;3.99;95.18;101692.09;5068185;28;20126;-77
2023/03/15 08:50:25;;;;;;;13.40;7.10;;;;;;;4.06;95.47;101695.66;5070287;28;20426;-77
2023/03/15 08:52:53;;;;;;;19.65;6.88;;;;;;;4.15;94.70;101696.63;5067172;28;20524;-77
2023/03/15 08:55:20;;;;;;;10.82;5.55;;;;;;;4.20;93.64;101697.53;5075329;28;20059;-78
2023/03/15 08:57:47;;;;;;;12.85;6.55;;;;;;;4.24;93.37;101698.44;5079030;28;20045;-78
2023/03/15 09:00:19;;;;;;;17.80;6.68;;;;;;;4.27;93.62;101702.84;5068963;28;20078;-77
2023/03/15 09:02:48;;;;;;;14.40;5.95;;;;;;;4.33;94.07;101700.25;5069297;28;20476;-77
2023/03/15 09:05:16;;;;;;;12.95;6.10;;;;;;;4.44;93.54;101705.56;5068092;28;20072;-77
2023/03/15 09:07:45;;;;;;;11.20;5.10;;;;;;;4.51;93.59;101712.63;5048391;28;20500;-77
2023/03/15 09:10:15;;;;;;;18.98;6.18;;;;;;;4.58;93.05;101701.34;5064946;28;20047;-77
2023/03/15 09:12:47;;;;;;;13.38;5.70;;;;;;;4.69;91.92;101713.63;5071548;28;20041;-78
2023/03/15 09:15:14;;;;;;;11.88;5.00;;;;;;;4.75;91.88;101709.34;5068162;28;20808;-77
2023/03/15 09:17:42;;;;;;;17.73;6.32;;;;;;;4.83;91.32;101719.84;5066536;28;20504;-77
2023/03/15 09:20:15;;;;;;;11.55;5.63;;;;;;;4.92;90.29;101719.03;5051224;28;20114;-77
2023/03/15 09:22:49;;;;;;;10.43;5.28;;;;;;;4.93;89.27;101721.66;5065727;28;20702;-77
2023/03/15 09:25:17;;;;;;;13.73;5.80;;;;;;;4.94;90.10;101715.56;5060764;28;21255;-77
2023/03/15 09:27:44;;;;;;;12.20;5.20;;;;;;;4.96;90.14;101729.50;5055202;28;20828;-77
2023/03/15 09:30:13;;;;;;;12.00;4.75;;;;;;;5.08;90.71;101723.50;5045886;28;20046;-77
2023/03/15 09:32:40;;;;;;;9.45;4.40;;;;;;;5.20;89.78;101721.81;5046900;28;20049;-77
2023/03/15 09:35:13;;;;;;;12.43;5.00;;;;;;;5.29;90.86;101714.06;5065425;28;20163;-77
2023/03/15 09:37:41;;;;;;;10.93;3.97;;;;;;;5.46;90.85;101716.72;5067119;28;20041;-77
2023/03/15 09:40:16;;;;;;;11.63;3.70;;;;;;;5.60;86.96;101716.78;5066741;28;20048;-77
2023/03/15 09:43:06;;;;;;;10.55;3.50;;;;;;;5.69;87.04;101711.63;5067445;28;20045;-77
2023/03/15 09:46:05;;;;;;;10.05;3.10;;;;;;;5.83;85.33;101722.13;5066924;28;20049;-77
2023/03/15 09:49:03;;;;;;;10.05;3.20;;;;;;;5.99;85.64;101720.47;5068457;28;20100;-77
2023/03/15 09:52:20;;;;;;;16.67;4.10;;;;;;;6.20;86.15;101719.66;5067045;28;20049;-77
2023/03/15 09:55:03;;;;;;;8.93;2.88;;;;;;;6.38;85.79;101720.53;5070821;28;20060;-77
2023/03/15 09:57:54;;;;;;;8.52;2.75;;;;;;;6.59;83.55;101721.44;5086234;28;20052;-76
2023/03/15 10:00:35;;;;;;;10.70;2.17;;;;;;;6.74;81.53;101721.44;5086621;28;20571;-77
2023/03/15 10:03:06;;;;;;;13.30;2.90;;;;;;;6.82;78.50;101717.06;5087117;28;20032;-77
2023/03/15 10:05:46;;;;;;;6.25;1.88;;;;;;;6.94;79.89;101716.19;5069161;28;20048;-76
2023/03/15 10:08:17;;;;;;;8.20;1.63;;;;;;;7.10;81.23;101719.66;5065849;28;20044;-76
2023/03/15 10:11:07;;;;;;;16.23;2.28;;;;;;;7.26;77.20;101719.63;5083400;28;20064;-77
2023/03/15 10:14:45;;;;;;;10.05;1.98;;;;;;;7.44;79.14;101727.44;5046034;28;20038;-76
2023/03/15 10:18:05;;;;;;;13.70;2.15;;;;;;;7.71;80.76;101724.72;5003306;28;20229;-76
2023/03/15 10:20:41;;;;;;;12.75;2.15;;;;;;;7.82;79.74;101730.81;4979778;28;20054;-76
2023/03/15 10:23:27;;;;;;;12.30;2.33;;;;;;;7.76;80.57;101730.81;5042224;28;20049;-77
2023/03/15 10:25:56;;;;;;;7.18;1.88;;;;;;;7.76;80.40;101738.69;5061577;28;20040;-77
2023/03/15 10:28:28;;;;;;;11.23;1.70;;;;;;;7.70;80.36;101731.72;5065815;28;20045;-76
2023/03/15 10:31:07;;;;;;;14.10;2.10;;;;;;;7.69;79.17;101732.59;5064495;28;20511;-76
2023/03/15 10:33:37;;;;;;;11.98;2.13;;;;;;;7.74;78.93;101728.22;5066308;28;20041;-76
2023/03/15 10:36:20;;;;;;;10.75;1.92;;;;;;;7.92;78.74;101729.88;5065843;28;20425;-76
2023/03/15 10:38:49;;;;;;;5.65;1.83;;;;;;;8.06;78.46;101737.69;5071569;28;20037;-77
2023/03/15 10:41:41;;;;;;;10.52;1.80;;;;;;;8.08;78.38;101733.31;5072511;28;20049;-77
2023/03/15 10:44:22;;;;;;;8.75;1.80;;;;;;;8.09;79.50;101734.16;5060804;28;20044;-77
2023/03/15 10:47:11;;;;;;;6.80;1.55;;;;;;;8.27;77.65;101740.19;5065151;28;20097;-77
2023/03/15 10:49:55;;;;;;;16.67;2.10;;;;;;;8.18;76.70;101744.63;5064129;28;20103;-76
2023/03/15 10:52:41;;;;;;;7.43;1.77;;;;;;;8.14;68.52;101748.13;5065551;28;20773;-76
2023/03/15 10:55:30;;;;;;;11.15;1.35;;;;;;;8.12;72.70;101749.91;5063547;28;20041;-77
2023/03/15 10:58:19;;;;;;;6.47;1.40;;;;;;;8.13;76.02;101746.41;5057990;28;20842;-77
2023/03/15 11:01:06;;;;;;;4.30;1.27;;;;;;;8.26;77.10;101747.19;5065620;28;20044;-77
2023/03/15 11:03:36;;;;;;;12.30;1.60;;;;;;;8.47;75.45;101755.81;5072597;28;20045;-78
2023/03/15 11:06:21;;;;;;;10.30;1.90;;;;;;;8.70;75.88;101760.94;5079867;28;20037;-77
2023/03/15 11:08:48;;;;;;;7.22;1.42;;;;;;;8.88;72.11;101762.56;5075367;28;20049;-77
2023/03/15 11:11:15;;;;;;;7.82;1.25;;;;;;;8.98;63.09;101760.69;5055030;28;20088;-77
2023/03/15 11:13:59;;;;;;;5.18;1.35;;;;;;;8.92;63.33;101764.25;5059259;28;20530;-77
2023/03/15 11:16:34;;;;;;;6.18;1.05;;;;;;;8.75;63.32;101761.75;5070253;28;20079;-78
2023/03/15 11:19:14;;;;;;;9.38;1.70;;;;;;;8.60;64.69;101764.53;5070675;28;20124;-77
2023/03/15 11:21:43;;;;;;;4.28;1.30;;;;;;;8.64;62.30;101763.63;5068105;28;20056;-76
2023/03/15 11:24:26;;;;;;;12.27;2.13;;;;;;;8.72;64.34;101759.19;5070569;28;20045;-77
2023/03/15 11:27:00;;;;;;;4.70;1.52;;;;;;;8.81;60.96;101777.50;5068660;28;20037;-77
2023/03/15 11:29:30;;;;;;;9.95;1.60;;;;;;;8.62;61.69;101786.41;5068316;28;20847;-77
2023/03/15 11:32:01;;;;;;;4.25;1.30;;;;;;;8.34;62.84;101781.31;5069098;28;20092;-77
2023/03/15 11:34:43;;;;;;;7.30;1.60;;;;;;;8.34;60.64;101783.94;5068738;28;20045;-77
2023/03/15 11:37:20;;;;;;;9.18;1.70;;;;;;;8.39;59.87;101784.78;5067480;28;20858;-77
2023/03/15 11:40:03;;;;;;;11.10;2.13;;;;;;;8.39;62.24;101785.63;5085860;28;20068;-77
2023/03/15 11:43:01;;;;;;;7.38;1.70;;;;;;;8.41;62.73;101790.91;5088962;28;20040;-76
2023/03/15 11:45:54;;;;;;;7.38;1.38;;;;;;;8.50;64.75;101783.00;5072208;28;20060;-77
2023/03/15 11:49:11;;;;;;;7.57;1.80;;;;;;;8.72;61.01;101777.59;5057387;28;20567;-77
2023/03/15 11:51:39;;;;;;;7.50;1.70;;;;;;;8.85;62.80;101771.31;5068162;28;20942;-77
2023/03/15 11:54:18;;;;;;;7.10;1.52;;;;;;;9.07;64.58;101770.28;5067006;28;20107;-77
2023/03/15 11:57:26;;;;;;;4.05;1.50;;;;;;;9.30;60.61;101778.84;5065150;28;20056;-77